Latest Weather Observations for Hogan Island

IDV60801

Issued at 5:32 pm EDT Sunday 18 November 2018 (issued every 10 minutes, with the page automatically refreshed every 10 minutes)

About weather observations | Map of weather stations | Latest weather observations for VIC | Other Formats
Station Details ID: 200838 Name: HOGAN ISLAND Lat: -39.22 Lon: 146.98 Height: 116.0 m
Data from the previous 72 hours. | See also: Recent months at Hogan Island
Date/Time
EDT
Temp
°C
App
Temp
°C
Dew
Point
°C
Rel
Hum
%
Delta-T
°C
Wind Press
QNH
hPa
Press
MSL
hPa
Rain since
9am
mm
Dir  Spd
km/h
Gust
km/h
Spd
kts
Gust
kts
18/05:30pm 16.5 10.2 12.3 76 2.3 E 37 44 20 24 1021.6 - 0.0
18/05:00pm 16.9 10.6 12.2 74 2.6 E 37 44 20 24 1021.8 - 0.0
18/04:30pm 17.2 10.6 12.7 75 2.5 E 39 43 21 23 1021.9 - 0.0
18/04:00pm 17.5 11.3 12.6 73 2.7 E 37 46 20 25 1022.2 - 0.0
18/03:30pm 17.6 11.4 12.5 72 2.8 E 37 46 20 25 1022.5 - 0.0
18/03:00pm 18.7 12.2 12.9 69 3.3 E 39 48 21 26 1022.8 1022.7 0.0
18/02:30pm 18.2 11.9 12.4 69 3.2 ENE 37 46 20 25 1023.2 - 0.0
18/02:00pm 18.5 12.8 12.9 70 3.2 ENE 35 41 19 22 1023.6 - 0.0
18/01:30pm 18.6 13.5 13.7 73 2.8 E 33 39 18 21 1023.9 - 0.0
18/01:00pm 18.5 13.3 13.4 72 2.9 E 33 39 18 21 1024.0 - 0.0
18/12:30pm 18.7 13.8 13.6 72 2.9 E 32 37 17 20 1024.2 - 0.0
18/12:00pm 18.4 12.8 13.3 72 2.9 E 35 41 19 22 1024.3 1024.2 0.0
18/11:30am 17.8 12.1 12.9 73 2.8 E 35 43 19 23 1024.5 - 0.0
18/11:00am 17.9 12.3 13.4 75 2.6 E 35 44 19 24 1024.6 - 0.0
18/10:30am 17.5 11.9 13.2 76 2.4 E 35 39 19 21 1024.7 - 0.0
18/10:00am 17.3 12.3 13.4 78 2.2 E 32 37 17 20 1024.9 - 0.0
18/09:30am 17.1 12.7 14.2 83 1.7 E 30 35 16 19 1024.9 - 0.0
18/09:00am 16.3 11.9 14.0 86 1.3 E 30 35 16 19 1024.8 1024.7 0.0
18/08:30am 15.8 11.5 14.3 91 0.9 E 30 33 16 18 1024.7 - 0.0
18/08:00am 15.4 11.1 14.4 94 0.6 E 30 33 16 18 1024.6 - 0.0
18/07:30am 14.7 10.2 13.9 95 0.5 E 30 33 16 18 1024.4 - 0.0
18/07:00am 14.2 9.6 13.6 96 0.3 E 30 35 16 19 1024.0 - 0.0
18/06:30am 13.5 9.1 13.0 97 0.3 E 28 32 15 17 1023.8 - 0.0
18/06:00am 12.7 8.4 12.1 96 0.3 E 26 28 14 15 1023.6 1023.5 0.0
18/05:30am 12.4 8.8 11.8 96 0.3 E 22 24 12 13 1023.5 - 0.0
18/05:00am 12.3 9.2 11.5 95 0.4 E 19 20 10 11 1023.4 - 0.0
18/04:30am 12.3 9.5 11.4 94 0.5 E 17 19 9 10 1023.5 - 0.0
18/04:00am 11.9 9.4 11.0 94 0.5 E 15 17 8 9 1023.5 - 0.0
18/03:30am 12.2 10.2 11.4 95 0.4 ENE 13 15 7 8 1023.7 - 0.0
18/03:00am 12.1 10.0 11.3 95 0.4 ENE 13 15 7 8 1023.7 1023.6 0.0
18/02:30am 12.1 9.6 11.2 94 0.5 E 15 17 8 9 1023.8 - 0.0
18/02:00am 12.1 10.3 11.0 93 0.6 ENE 11 13 6 7 1024.1 - 0.0
18/01:30am 12.1 9.9 10.7 91 0.7 ENE 13 13 7 7 1024.3 - 0.0
18/01:00am 12.0 9.7 10.4 90 0.8 ENE 13 13 7 7 1024.6 - 0.0
18/12:30am 12.3 10.8 10.4 88 1.0 ENE 9 11 5 6 1024.9 - 0.0
18/12:00am 12.5 11.0 10.4 87 1.1 E 9 9 5 5 1025.0 1025.0 0.0
 
Date/Time
EDT
Temp
°C
App
Temp
°C
Dew
Point
°C
Rel
Hum
%
Delta-T
°C
Wind Press
QNH
hPa
Press
MSL
hPa
Rain since
9am
mm
Dir  Spd
km/h
Gust
km/h
Spd
kts
Gust
kts
17/11:30pm 12.5 10.9 10.2 86 1.2 E 9 11 5 6 1025.1 - 0.0
17/11:00pm 12.5 10.8 9.7 83 1.4 E 9 11 5 6 1025.3 - 0.0
17/10:30pm 12.6 10.8 9.4 81 1.6 E 9 9 5 5 1025.4 - 0.0
17/09:00pm 12.7 11.2 8.6 76 2.0 ESE 6 7 3 4 1025.2 1025.2 0.0
17/04:00pm 16.6 14.6 11.5 72 2.8 SE 13 17 7 9 1024.0 - 0.0
17/03:30pm 17.4 15.5 11.9 70 3.0 SSE 13 17 7 9 1024.1 - 0.0
17/02:30pm 18.7 16.8 12.9 69 3.3 SSW 15 20 8 11 1024.3 - 0.0
17/02:00pm 18.2 16.1 12.4 69 3.2 S 15 20 8 11 1024.4 - 0.0
17/01:30pm 17.8 16.1 12.3 70 3.1 SW 13 20 7 11 1024.5 - 0.0
17/01:00pm 17.1 14.9 12.2 73 2.7 SW 15 22 8 12 1024.7 - 0.0
17/11:30am 17.3 15.5 12.2 72 2.8 SW 13 17 7 9 1024.6 - 0.0
17/11:00am 17.3 15.9 12.2 72 2.8 S 11 15 6 8 1024.3 - 0.0
17/10:30am 16.2 14.0 10.9 71 2.8 SSE 13 17 7 9 1024.3 - 0.0
17/10:00am 17.1 15.1 11.6 70 3.0 S 13 17 7 9 1024.2 - 0.0
17/09:30am 16.5 14.3 12.1 75 2.4 S 15 19 8 10 1024.0 - 0.0
17/09:00am 15.1 13.2 11.9 81 1.7 SW 13 19 7 10 1023.7 1023.6 0.0
17/08:30am 15.1 13.0 12.4 84 1.5 SW 15 20 8 11 1023.5 - 0.0
17/08:00am 14.3 11.4 11.1 81 1.7 SW 17 24 9 13 1023.3 - 0.0
17/07:30am 13.8 10.8 10.8 82 1.6 SW 17 22 9 12 1023.1 - 0.0
17/07:00am 13.2 10.5 10.4 83 1.5 SSW 15 20 8 11 1022.6 - 0.0
17/06:30am 12.6 9.3 9.6 82 1.5 SSW 17 22 9 12 1022.3 - 0.0
17/06:00am 12.2 8.8 9.0 81 1.6 SW 17 22 9 12 1022.1 1022.0 0.0
17/05:30am 12.2 8.2 8.9 80 1.7 SW 20 26 11 14 1021.6 - 0.0
17/05:00am 12.0 8.1 8.7 80 1.7 SW 19 22 10 12 1021.3 - 0.0
17/04:30am 11.9 8.7 8.4 79 1.7 SW 15 20 8 11 1021.1 - 0.0
17/04:00am 11.7 8.1 8.4 80 1.6 SSW 17 22 9 12 1021.1 - 0.0
17/03:30am 12.1 8.3 9.7 85 1.2 SW 20 26 11 14 1021.1 - 0.0
17/03:00am 11.9 7.4 10.1 89 0.9 SW 24 28 13 15 1021.2 1021.1 0.0
17/02:30am 11.9 7.9 10.3 90 0.8 SW 22 24 12 13 1021.2 - 0.0
17/02:00am 12.3 8.8 10.9 91 0.7 SW 20 24 11 13 1021.3 - 0.0
17/01:30am 12.5 9.3 11.1 91 0.7 SW 19 24 10 13 1021.3 - 0.0
17/01:00am 12.7 8.9 11.1 90 0.8 SW 22 32 12 17 1021.6 - 0.0
17/12:30am 12.7 9.4 10.9 89 0.9 SSW 19 30 10 16 1021.7 - 0.0
17/12:00am 13.1 10.0 11.5 90 0.9 SW 19 28 10 15 1021.7 1021.6 0.0
 
Date/Time
EDT
Temp
°C
App
Temp
°C
Dew
Point
°C
Rel
Hum
%
Delta-T
°C
Wind Press
QNH
hPa
Press
MSL
hPa
Rain since
9am
mm
Dir  Spd
km/h
Gust
km/h
Spd
kts
Gust
kts
16/11:30pm 13.0 9.0 11.7 92 0.7 SW 24 30 13 16 1021.7 - 0.0
16/11:00pm 12.8 8.7 11.4 91 0.7 SW 24 32 13 17 1021.7 - 0.0
16/10:50pm 13.0 7.4 11.6 91 0.7 SSW 32 35 17 19 1021.6 - 0.0
16/10:30pm 13.0 11.3 11.1 88 1.0 WSW 11 13 6 7 1021.7 - 0.0
16/10:00pm 12.9 11.8 10.8 87 1.1 WSW 7 9 4 5 1021.5 - 0.0
16/09:30pm 13.4 12.6 10.9 85 1.3 WSW 6 7 3 4 1021.3 - 0.0
16/09:00pm 12.9 11.2 9.9 82 1.5 NNE 9 11 5 6 1021.1 1021.0 0.0
16/08:30pm 12.9 10.8 9.7 81 1.6 ENE 11 11 6 6 1020.8 - 0.0
16/08:00pm 13.1 10.5 9.5 79 1.8 ENE 13 15 7 8 1020.5 - 0.0
16/07:30pm 14.0 11.9 9.6 75 2.3 ENE 11 13 6 7 1020.2 - 0.0
16/07:00pm 14.6 10.1 10.0 74 2.4 ENE 24 28 13 15 1019.7 - 0.0
16/06:30pm 15.2 11.7 10.2 72 2.6 ENE 19 24 10 13 1019.6 - 0.0
16/06:00pm 15.9 12.0 10.7 71 2.8 ENE 22 28 12 15 1019.3 1019.3 0.0
16/05:30pm 16.1 11.8 10.8 71 2.8 ENE 24 30 13 16 1019.4 - 0.0
16/05:00pm 16.4 12.1 10.9 70 3.0 ENE 24 33 13 18 1019.3 - 0.0
16/04:30pm 16.0 11.6 10.3 69 3.0 ENE 24 32 13 17 1019.3 - 0.0
16/04:00pm 18.3 14.4 12.1 67 3.4 E 24 30 13 16 1019.3 - 0.0
16/03:30pm 18.5 14.8 12.7 69 3.3 E 24 30 13 16 1019.3 - 0.0
16/03:00pm 17.5 12.1 10.9 65 3.6 ENE 30 37 16 20 1019.5 1019.5 0.0
16/02:30pm 17.4 13.5 12.1 71 2.9 ENE 24 30 13 16 1019.9 - 0.0
16/02:00pm 16.9 13.2 11.4 70 3.0 ENE 22 26 12 14 1020.2 - 0.0
16/01:30pm 17.9 13.8 12.8 72 2.9 ENE 26 28 14 15 1020.0 - 0.0
16/01:00pm 17.6 14.6 12.5 72 2.8 ENE 20 26 11 14 1020.3 - 0.0
16/12:30pm 17.6 14.5 12.3 71 2.9 ENE 20 26 11 14 1020.5 - 0.0
16/12:00pm 17.2 14.1 12.3 73 2.7 E 20 24 11 13 1020.7 1020.6 0.0
16/11:30am 17.8 15.1 12.9 73 2.8 ENE 19 22 10 12 1021.0 - 0.0
16/11:00am 16.9 13.4 12.2 74 2.6 ENE 22 26 12 14 1020.9 - 0.0
16/10:30am 16.3 13.3 12.1 76 2.3 ENE 19 22 10 12 1021.3 - 0.0
16/10:00am 16.3 13.3 12.1 76 2.3 ENE 19 22 10 12 1021.8 - 0.0
16/09:30am 16.2 13.2 12.4 78 2.1 ENE 20 24 11 13 1021.7 - 0.0
16/09:00am 15.7 12.2 12.3 80 1.9 ENE 22 26 12 14 1021.8 1021.7 0.0
16/08:30am 15.6 12.2 12.5 82 1.7 ENE 22 26 12 14 1021.8 - 0.0
16/08:00am 14.5 10.9 11.8 84 1.5 ENE 22 26 12 14 1021.8 - 0.0
16/07:30am 13.9 10.1 11.2 84 1.4 ENE 22 28 12 15 1021.6 - 0.0
16/07:00am 14.0 9.7 11.9 87 1.1 ENE 26 32 14 17 1021.4 - 0.0
16/06:30am 13.0 7.7 11.2 89 1.0 ENE 30 35 16 19 1021.3 - 0.0
16/06:00am 12.9 7.2 11.3 90 0.8 ENE 32 37 17 20 1021.0 1020.9 0.0
16/05:30am 12.3 5.5 10.5 89 0.9 E 37 43 20 23 1020.7 - 0.0
16/05:00am 12.1 4.9 10.7 91 0.7 ENE 39 44 21 24 1020.6 - 0.0
16/04:30am 12.0 7.0 10.9 93 0.6 ENE 28 32 15 17 1021.3 - 0.0
16/04:00am 12.4 6.5 11.1 92 0.7 ENE 33 37 18 20 1021.5 - 0.0
16/03:30am 12.3 7.0 11.2 93 0.6 E 30 35 16 19 1022.3 - 0.0
16/03:00am 11.7 7.1 10.9 95 0.4 E 26 32 14 17 1022.7 1022.6 0.0
16/02:30am 11.6 8.6 10.7 94 0.5 E 17 19 9 10 1023.3 - 0.0
16/02:00am 11.0 7.4 9.9 93 0.6 E 19 20 10 11 1023.4 - 0.0
16/01:30am 11.0 7.3 9.6 91 0.7 E 19 20 10 11 1023.8 - 0.0
16/01:00am 10.9 7.9 9.2 89 0.9 E 15 19 8 10 1024.3 - 0.0
16/12:30am 10.9 8.6 9.0 88 0.9 ESE 11 13 6 7 1024.9 - 0.0
16/12:00am 10.8 8.8 8.6 86 1.1 SE 9 13 5 7 1025.1 1025.1 0.0
 
Date/Time
EDT
Temp
°C
App
Temp
°C
Dew
Point
°C
Rel
Hum
%
Delta-T
°C
Wind Press
QNH
hPa
Press
MSL
hPa
Rain since
9am
mm
Dir  Spd
km/h
Gust
km/h
Spd
kts
Gust
kts
15/11:30pm 10.6 8.1 8.2 85 1.2 SE 11 13 6 7 1025.4 - 0.0
15/11:00pm 10.2 7.6 7.6 84 1.3 ESE 11 13 6 7 1025.4 - 0.0
15/10:30pm 10.4 7.8 7.6 83 1.4 ESE 11 13 6 7 1025.3 - 0.0
15/10:00pm 10.3 7.6 7.4 82 1.4 ESE 11 11 6 6 1025.3 - 0.0
15/09:30pm 10.0 6.4 6.7 80 1.6 ESE 15 19 8 10 1024.9 - 0.0
15/09:00pm 10.0 5.9 6.3 78 1.7 ESE 17 19 9 10 1024.6 1024.5 0.0
15/08:30pm 10.4 7.1 6.2 75 2.0 ESE 13 13 7 7 1024.6 - 0.0
15/08:00pm 10.8 7.5 6.2 73 2.2 SE 13 15 7 8 1024.4 - 0.0
15/07:30pm 11.6 8.7 6.5 71 2.4 SSE 11 15 6 8 1024.4 - 0.0
15/07:00pm 12.6 9.9 7.3 70 2.6 S 11 15 6 8 1024.4 - 0.0
15/06:30pm 13.3 9.4 7.3 67 2.9 SW 17 20 9 11 1024.0 - 0.0
15/06:00pm 14.0 10.1 7.3 64 3.3 SW 17 22 9 12 1023.8 1023.7 0.0

Other Formats:

Comma delimited format used in spreadsheet applications
http://www.bom.gov.au/fwo/IDV60801/IDV60801.94949.axf

JavaScript Object Notation format (JSON) in row-major order
http://www.bom.gov.au/fwo/IDV60801/IDV60801.94949.json